Time;durP1;ratioP1;P1;durP2;ratioP2;P2;SDS_P1;SDS_P2;PMS_P1;PMS_P2;Temp;Humidity;BMP_temperature;BMP_pressure;BME280_temperature;BME280_humidity;BME280_pressure;Samples;Min_cycle;Max_cycle;Signal;HPM_P1;HPM_P2
2022/06/12 00:00:45;;;;;;;4.93;1.60;;;18.80;56.70;;;;;;5045096;28;20045;-71
2022/06/12 00:03:14;;;;;;;5.88;1.90;;;18.80;56.70;;;;;;5037168;28;20091;-71
2022/06/12 00:05:42;;;;;;;4.97;1.80;;;18.80;56.70;;;;;;5045118;28;20033;-71
2022/06/12 00:08:09;;;;;;;6.05;2.00;;;18.70;56.70;;;;;;5028639;28;20036;-71
2022/06/12 00:10:37;;;;;;;6.05;1.90;;;18.70;56.80;;;;;;5035628;28;20458;-71
2022/06/12 00:13:04;;;;;;;5.43;1.80;;;18.70;56.90;;;;;;5036545;28;20036;-71
2022/06/12 00:15:31;;;;;;;3.75;1.60;;;18.70;57.00;;;;;;5035715;28;20048;-71
2022/06/12 00:17:58;;;;;;;6.60;1.77;;;18.70;57.20;;;;;;5041115;28;20026;-71
2022/06/12 00:20:24;;;;;;;4.97;1.77;;;18.60;57.20;;;;;;5034881;28;20041;-71
2022/06/12 00:22:52;;;;;;;5.13;1.63;;;18.60;57.40;;;;;;5045424;28;20509;-71
2022/06/12 00:25:18;;;;;;;5.13;1.60;;;18.60;57.50;;;;;;5032714;28;20025;-71
2022/06/12 00:27:44;;;;;;;5.78;1.70;;;18.50;57.50;;;;;;5048883;28;20420;-71
2022/06/12 00:30:15;;;;;;;4.25;1.70;;;18.50;57.50;;;;;;5050335;28;20064;-71
2022/06/12 00:32:41;;;;;;;5.85;1.70;;;18.50;57.70;;;;;;5035763;28;20021;-71
2022/06/12 00:35:07;;;;;;;6.50;1.77;;;18.50;57.80;;;;;;5046792;28;20037;-71
2022/06/12 00:37:35;;;;;;;4.20;1.45;;;18.50;57.90;;;;;;5040691;28;20044;-71
2022/06/12 00:40:03;;;;;;;5.15;1.77;;;18.40;57.80;;;;;;5039253;28;20478;-70
2022/06/12 00:42:30;;;;;;;4.25;1.50;;;18.40;58.00;;;;;;5042310;28;20043;-70
2022/06/12 00:44:58;;;;;;;5.90;2.03;;;18.30;57.90;;;;;;5048130;28;20454;-70
2022/06/12 00:47:25;;;;;;;5.22;1.80;;;18.30;58.00;;;;;;5035148;28;20037;-70
2022/06/12 00:50:03;;;;;;;6.75;2.08;;;18.30;58.10;;;;;;5037890;28;20079;-70
2022/06/12 00:52:34;;;;;;;7.65;1.90;;;18.30;58.20;;;;;;5040224;28;20128;-71
2022/06/12 00:55:31;;;;;;;6.40;1.88;;;18.20;58.30;;;;;;5040988;28;20029;-71
2022/06/12 00:58:05;;;;;;;8.07;2.38;;;18.20;58.40;;;;;;5038609;28;20466;-72
2022/06/12 01:00:31;;;;;;;5.82;1.85;;;18.20;58.50;;;;;;5036456;28;20063;-71
2022/06/12 01:02:59;;;;;;;6.40;2.10;;;18.20;58.70;;;;;;5038879;28;20053;-71
2022/06/12 01:08:10;;;;;;;6.05;2.17;;;18.10;58.80;;;;;;5040441;28;20021;-71
2022/06/12 01:10:39;;;;;;;5.20;1.80;;;18.10;59.00;;;;;;5042021;28;20474;-71
2022/06/12 01:13:11;;;;;;;5.70;2.05;;;18.10;59.10;;;;;;5040367;28;20047;-71
2022/06/12 01:15:41;;;;;;;7.05;1.80;;;18.10;59.20;;;;;;5043681;28;20041;-71
2022/06/12 01:18:11;;;;;;;4.97;1.80;;;18.10;59.30;;;;;;5035641;28;20037;-71
2022/06/12 01:20:57;;;;;;;7.07;2.08;;;18.00;59.40;;;;;;5048478;28;20434;-70
2022/06/12 01:23:44;;;;;;;7.28;1.65;;;18.10;59.50;;;;;;5038274;28;20056;-71
2022/06/12 01:26:43;;;;;;;6.68;2.30;;;18.00;59.70;;;;;;5043664;28;20114;-70
2022/06/12 01:29:42;;;;;;;6.85;2.22;;;18.00;59.90;;;;;;5041991;28;20028;-71
2022/06/12 01:32:18;;;;;;;5.65;1.83;;;17.90;60.00;;;;;;5035657;28;20045;-71
2022/06/12 01:34:59;;;;;;;5.97;1.95;;;17.90;60.10;;;;;;5043180;28;20033;-71
2022/06/12 01:37:37;;;;;;;6.85;2.20;;;17.90;60.30;;;;;;5038861;28;20042;-71
2022/06/12 01:40:12;;;;;;;6.53;2.17;;;17.90;60.50;;;;;;5043522;28;20522;-71
2022/06/12 01:42:44;;;;;;;8.85;2.30;;;17.90;60.60;;;;;;5038118;28;20025;-71
2022/06/12 01:45:44;;;;;;;6.07;2.22;;;17.90;60.80;;;;;;5042030;28;20451;-71
2022/06/12 01:48:23;;;;;;;6.35;1.67;;;17.80;60.90;;;;;;5019282;28;20025;-71
2022/06/12 01:50:55;;;;;;;6.03;2.03;;;17.80;61.00;;;;;;5040414;28;20112;-71
2022/06/12 01:53:51;;;;;;;5.88;2.10;;;17.80;61.10;;;;;;5037463;28;20087;-71
2022/06/12 01:56:34;;;;;;;7.25;2.20;;;17.80;61.20;;;;;;5047517;28;20032;-70
2022/06/12 01:59:15;;;;;;;5.18;1.85;;;17.80;61.40;;;;;;5043002;28;20037;-71
2022/06/12 02:01:51;;;;;;;7.47;2.30;;;17.70;61.50;;;;;;5045438;28;21345;-72
2022/06/12 02:04:20;;;;;;;5.90;2.42;;;17.70;61.60;;;;;;5053611;28;20052;-70
2022/06/12 02:07:00;;;;;;;7.25;2.17;;;17.70;61.80;;;;;;5034812;28;20111;-70
2022/06/12 02:09:52;;;;;;;8.48;2.25;;;17.70;61.90;;;;;;5037984;28;20112;-71
2022/06/12 02:15:28;;;;;;;6.75;2.05;;;17.60;62.10;;;;;;5037165;28;20036;-71
2022/06/12 02:18:12;;;;;;;5.40;1.60;;;17.60;62.10;;;;;;5037306;28;20082;-70
2022/06/12 02:20:43;;;;;;;7.78;1.95;;;17.50;62.20;;;;;;5048205;28;20116;-70
2022/06/12 02:23:16;;;;;;;8.07;2.28;;;17.50;62.40;;;;;;5039512;28;20055;-70
2022/06/12 02:25:45;;;;;;;6.05;2.13;;;17.50;62.50;;;;;;5041199;28;20016;-70
2022/06/12 02:28:21;;;;;;;7.28;1.88;;;17.50;62.70;;;;;;5027216;28;20033;-70
2022/06/12 02:30:53;;;;;;;8.13;2.00;;;17.50;62.70;;;;;;5039413;28;20021;-70
2022/06/12 02:33:26;;;;;;;;;;;17.50;62.70;;;;;;5038902;28;20029;-70
2022/06/12 02:36:08;;;;;;;7.90;1.75;;;17.40;62.60;;;;;;5039912;28;20269;-70
2022/06/12 02:38:45;;;;;;;;;;;17.40;62.70;;;;;;5037083;28;20033;-70
2022/06/12 02:41:18;;;;;;;6.63;1.80;;;17.40;62.60;;;;;;5043394;28;19920;-70
2022/06/12 02:43:46;;;;;;;7.30;1.77;;;17.30;62.70;;;;;;5050729;28;20025;-70
2022/06/12 02:46:39;;;;;;;7.60;2.47;;;17.30;62.80;;;;;;5045701;28;20544;-70
2022/06/12 02:49:06;;;;;;;6.10;2.13;;;17.30;62.90;;;;;;5043305;28;20053;-70
2022/06/12 02:52:12;;;;;;;5.78;1.77;;;17.30;63.00;;;;;;5052328;28;20072;-71
2022/06/12 02:54:52;;;;;;;5.85;1.65;;;17.30;63.20;;;;;;5048703;28;20033;-73
2022/06/12 02:57:37;;;;;;;7.72;2.20;;;17.20;63.20;;;;;;5035986;28;20037;-69
2022/06/12 03:00:13;;;;;;;8.80;2.08;;;17.20;63.30;;;;;;5038711;28;20036;-69
2022/06/12 03:02:59;;;;;;;8.27;1.92;;;17.20;63.20;;;;;;5044793;28;20025;-76
2022/06/12 03:05:28;;;;;;;7.72;2.08;;;17.20;63.30;;;;;;5046996;28;20025;-71
2022/06/12 03:08:00;;;;;;;7.30;2.13;;;17.20;63.40;;;;;;5041714;28;20440;-72
2022/06/12 03:10:32;;;;;;;9.85;2.17;;;17.20;63.50;;;;;;5042887;28;20026;-72
2022/06/12 03:13:00;;;;;;;8.05;2.45;;;17.20;63.60;;;;;;5049134;28;20072;-70
2022/06/12 03:15:36;;;;;;;7.80;2.08;;;17.20;63.70;;;;;;5044872;28;20132;-72
2022/06/12 03:18:07;;;;;;;4.75;1.70;;;17.20;63.80;;;;;;5042851;28;20025;-72
2022/06/12 03:20:42;;;;;;;7.75;2.60;;;17.20;63.80;;;;;;5042235;28;20040;-71
2022/06/12 03:23:28;;;;;;;8.82;2.10;;;17.10;63.90;;;;;;5039668;28;20028;-71
2022/06/12 03:25:56;;;;;;;5.88;2.20;;;17.20;64.10;;;;;;5038247;28;20124;-71
2022/06/12 03:28:58;;;;;;;10.25;2.33;;;17.20;64.10;;;;;;5035569;28;20060;-71
2022/06/12 03:31:35;;;;;;;6.30;2.22;;;17.20;64.20;;;;;;5038123;28;20431;-71
2022/06/12 03:34:10;;;;;;;7.93;2.17;;;17.20;64.20;;;;;;5037023;28;20140;-72
2022/06/12 03:36:42;;;;;;;8.05;2.42;;;17.10;64.10;;;;;;5034678;28;20462;-71
2022/06/12 03:39:17;;;;;;;6.85;2.65;;;17.10;64.20;;;;;;5037501;28;20041;-71
2022/06/12 03:41:54;;;;;;;7.03;1.85;;;17.10;64.30;;;;;;5034919;28;20022;-71
2022/06/12 03:44:31;;;;;;;10.68;2.90;;;17.20;64.30;;;;;;5040797;28;20017;-70
2022/06/12 03:47:00;;;;;;;6.32;2.08;;;17.10;64.40;;;;;;5036533;28;20057;-71
2022/06/12 03:49:29;;;;;;;7.15;2.20;;;17.10;64.40;;;;;;5043468;28;20382;-72
2022/06/12 03:52:15;;;;;;;7.15;2.25;;;17.10;64.50;;;;;;5027190;28;20082;-71
2022/06/12 03:54:50;;;;;;;5.53;2.35;;;17.10;64.60;;;;;;5038845;28;20034;-71
2022/06/12 04:00:30;;;;;;;7.53;2.40;;;17.10;64.80;;;;;;5039016;28;20032;-74
2022/06/12 04:03:06;;;;;;;6.53;2.22;;;17.00;64.80;;;;;;5044081;28;20037;-72
2022/06/12 04:05:38;;;;;;;8.82;2.67;;;17.10;65.00;;;;;;5044533;28;20086;-72
2022/06/12 04:08:04;;;;;;;;;;;17.10;65.00;;;;;;5047178;28;20404;-73
2022/06/12 04:10:34;;;;;;;8.52;2.72;;;17.10;64.80;;;;;;5043816;28;19909;-72
2022/06/12 04:13:01;;;;;;;7.72;2.33;;;17.00;64.90;;;;;;5042942;28;20431;-71
2022/06/12 04:15:32;;;;;;;6.97;2.40;;;17.00;64.90;;;;;;5046082;28;20036;-70
2022/06/12 04:17:59;;;;;;;;;;;17.10;65.10;;;;;;5039249;28;20406;-72
2022/06/12 04:20:38;;;;;;;7.68;2.55;;;17.10;64.90;;;;;;5037869;28;19921;-73
2022/06/12 04:23:10;;;;;;;8.85;2.60;;;17.10;65.10;;;;;;5038435;28;20080;-73
2022/06/12 04:25:40;;;;;;;7.18;2.47;;;17.10;65.20;;;;;;5038790;28;20112;-73
2022/06/12 04:28:23;;;;;;;8.88;2.80;;;17.10;65.20;;;;;;5043430;28;20021;-75
2022/06/12 04:30:49;;;;;;;8.32;2.60;;;17.10;65.30;;;;;;5034752;28;20021;-73
2022/06/12 04:33:41;;;;;;;8.32;3.00;;;17.20;65.30;;;;;;5035853;28;20365;-74
2022/06/12 04:36:08;;;;;;;7.65;2.50;;;17.20;65.30;;;;;;5039120;28;20040;-74
2022/06/12 04:38:35;;;;;;;10.30;2.45;;;17.20;65.30;;;;;;5047937;28;20107;-70
2022/06/12 04:41:01;;;;;;;8.25;2.67;;;17.20;65.40;;;;;;5041258;28;20033;-72
2022/06/12 04:43:28;;;;;;;9.90;3.05;;;17.20;65.40;;;;;;5039701;28;20041;-71
2022/06/12 04:45:54;;;;;;;6.72;2.40;;;17.20;65.50;;;;;;5040398;28;20063;-72
2022/06/12 04:48:37;;;;;;;11.68;2.80;;;17.30;65.50;;;;;;5043835;28;20030;-70
2022/06/12 04:51:04;;;;;;;8.52;2.75;;;17.30;65.50;;;;;;5038286;28;20021;-71
2022/06/12 04:53:30;;;;;;;11.75;2.78;;;17.30;65.50;;;;;;5040252;28;20025;-71
2022/06/12 04:55:56;;;;;;;7.82;2.38;;;17.40;65.50;;;;;;5042294;28;20025;-70
2022/06/12 04:58:21;;;;;;;8.60;2.50;;;17.40;65.60;;;;;;5040067;28;20033;-70
2022/06/12 05:00:47;;;;;;;7.95;2.75;;;17.40;65.70;;;;;;5041836;28;20025;-70
2022/06/12 05:03:13;;;;;;;8.27;3.10;;;17.40;65.60;;;;;;5034025;28;20107;-70
2022/06/12 05:05:40;;;;;;;13.27;3.20;;;17.50;65.60;;;;;;5035616;28;20442;-70
2022/06/12 05:08:06;;;;;;;8.45;2.70;;;17.50;65.50;;;;;;5032227;28;20037;-70
2022/06/12 05:10:31;;;;;;;7.05;2.47;;;17.70;65.40;;;;;;5035222;28;20036;-69
2022/06/12 05:12:57;;;;;;;8.35;2.70;;;18.30;64.20;;;;;;5045099;28;20116;-70
2022/06/12 05:15:23;;;;;;;11.15;2.92;;;19.10;62.30;;;;;;5031259;28;20534;-70
2022/06/12 05:17:49;;;;;;;7.45;2.47;;;19.30;61.60;;;;;;5016586;28;20025;-70
2022/06/12 05:20:21;;;;;;;8.30;2.50;;;19.30;61.70;;;;;;5033069;28;20072;-70
2022/06/12 05:22:47;;;;;;;10.10;3.47;;;19.30;61.80;;;;;;5036007;28;20492;-70
2022/06/12 05:25:14;;;;;;;9.95;2.97;;;19.20;62.00;;;;;;5030040;28;20056;-71
2022/06/12 05:27:40;;;;;;;10.27;2.97;;;19.20;62.20;;;;;;5035457;28;20025;-70
2022/06/12 05:30:07;;;;;;;8.65;2.42;;;19.10;62.30;;;;;;5032268;28;20098;-70
2022/06/12 05:32:33;;;;;;;13.00;3.35;;;19.20;62.40;;;;;;5032415;28;20048;-70
2022/06/12 05:34:59;;;;;;;10.55;2.83;;;19.20;62.40;;;;;;5031411;28;20039;-71
2022/06/12 05:37:25;;;;;;;11.00;2.80;;;19.30;62.30;;;;;;5034944;28;20033;-70
2022/06/12 05:39:51;;;;;;;13.43;3.60;;;19.30;62.20;;;;;;5031342;28;20033;-68
2022/06/12 05:42:17;;;;;;;9.57;2.65;;;19.40;62.20;;;;;;5032267;28;20022;-68
2022/06/12 05:44:43;;;;;;;9.55;2.92;;;19.40;62.20;;;;;;5034965;28;20450;-70
2022/06/12 05:47:10;;;;;;;9.75;2.80;;;19.40;62.10;;;;;;5035484;28;20052;-70
2022/06/12 05:49:35;;;;;;;11.05;3.30;;;19.50;62.10;;;;;;5038283;28;20041;-70
2022/06/12 05:52:01;;;;;;;9.80;3.08;;;19.60;62.10;;;;;;5034962;28;20025;-70
2022/06/12 05:54:27;;;;;;;8.40;2.92;;;19.60;62.00;;;;;;5032186;28;20063;-70
2022/06/12 05:56:53;;;;;;;9.95;2.90;;;19.70;62.00;;;;;;5036262;28;20056;-70
2022/06/12 05:59:19;;;;;;;8.43;2.83;;;19.70;61.90;;;;;;5039917;28;20425;-69
2022/06/12 06:01:45;;;;;;;11.32;3.13;;;19.90;61.90;;;;;;5037219;28;21399;-70
2022/06/12 06:04:11;;;;;;;11.15;4.10;;;19.90;61.80;;;;;;5035742;28;20479;-69
2022/06/12 06:06:43;;;;;;;10.95;2.85;;;20.00;61.80;;;;;;5036206;28;20029;-69
2022/06/12 06:09:09;;;;;;;10.93;2.97;;;20.00;61.50;;;;;;5046361;28;20806;-70
2022/06/12 06:11:34;;;;;;;11.68;3.22;;;20.20;61.40;;;;;;5034188;28;20151;-69
2022/06/12 06:14:00;;;;;;;10.23;3.78;;;20.30;61.10;;;;;;5034960;28;20116;-69
2022/06/12 06:16:26;;;;;;;11.43;3.13;;;20.30;61.00;;;;;;5045363;28;20373;-70
2022/06/12 06:18:54;;;;;;;11.45;3.55;;;20.40;60.90;;;;;;5039258;28;20087;-69
2022/06/12 06:21:20;;;;;;;10.80;3.63;;;20.40;60.80;;;;;;5034261;28;20056;-69
2022/06/12 06:23:45;;;;;;;11.23;3.33;;;20.50;60.80;;;;;;5037366;28;20029;-70
2022/06/12 06:26:11;;;;;;;10.38;3.15;;;20.60;60.60;;;;;;5033147;28;20095;-72
2022/06/12 06:28:39;;;;;;;10.27;3.50;;;20.70;60.50;;;;;;5039503;28;20420;-73
2022/06/12 06:31:06;;;;;;;12.68;3.45;;;20.80;60.30;;;;;;5038066;28;20033;-73
2022/06/12 06:33:32;;;;;;;10.20;3.00;;;21.00;60.10;;;;;;5036956;28;20022;-73
2022/06/12 06:35:58;;;;;;;13.05;3.63;;;21.00;60.10;;;;;;5032541;28;20047;-73
2022/06/12 06:38:24;;;;;;;13.52;3.10;;;21.10;60.00;;;;;;5034945;28;20427;-73
2022/06/12 06:40:49;;;;;;;10.15;3.05;;;21.20;59.90;;;;;;5038315;28;20111;-72
2022/06/12 06:43:15;;;;;;;10.73;3.92;;;21.30;59.70;;;;;;5035235;28;20043;-73
2022/06/12 06:48:27;;;;;;;10.93;3.53;;;21.40;59.50;;;;;;5041124;28;20040;-70
2022/06/12 06:50:53;;;;;;;12.38;3.55;;;21.60;59.20;;;;;;5017312;28;20344;-74
2022/06/12 06:53:19;;;;;;;13.10;3.80;;;21.70;59.10;;;;;;5036685;28;20029;-73
2022/06/12 06:55:46;;;;;;;12.80;3.15;;;21.80;59.10;;;;;;5043223;28;20022;-73
2022/06/12 06:58:15;;;;;;;8.88;3.13;;;21.90;59.00;;;;;;5039021;28;20104;-73
2022/06/12 07:00:42;;;;;;;11.00;3.15;;;21.90;58.70;;;;;;5020505;28;20040;-72
2022/06/12 07:03:08;;;;;;;11.30;3.28;;;22.00;58.50;;;;;;5035780;28;20037;-72
2022/06/12 07:05:35;;;;;;;13.95;3.50;;;22.10;58.40;;;;;;5036201;28;20032;-72
2022/06/12 07:08:02;;;;;;;9.82;3.35;;;22.10;58.30;;;;;;5036740;28;20033;-72
2022/06/12 07:10:31;;;;;;;10.30;3.42;;;22.30;58.20;;;;;;5032319;28;20112;-72
2022/06/12 07:12:57;;;;;;;11.43;3.45;;;22.30;58.10;;;;;;5042082;28;20489;-72
2022/06/12 07:15:24;;;;;;;9.18;3.45;;;22.40;58.00;;;;;;5041048;28;20017;-72
2022/06/12 07:17:50;;;;;;;13.95;3.92;;;22.40;57.80;;;;;;5035151;28;20030;-72
2022/06/12 07:20:19;;;;;;;11.60;3.42;;;22.50;57.70;;;;;;5035703;28;20025;-72
2022/06/12 07:22:44;;;;;;;11.10;3.97;;;22.60;57.60;;;;;;5035924;28;20018;-72
2022/06/12 07:25:11;;;;;;;12.15;3.65;;;22.70;57.50;;;;;;5039882;28;20431;-74
2022/06/12 07:27:38;;;;;;;12.10;3.88;;;22.80;57.40;;;;;;5048647;28;20098;-74
2022/06/12 07:30:06;;;;;;;10.32;3.20;;;22.90;57.20;;;;;;5052695;28;20033;-74
2022/06/12 07:32:33;;;;;;;13.13;3.67;;;23.00;57.00;;;;;;5037056;28;20430;-74
2022/06/12 07:34:59;;;;;;;13.18;4.18;;;23.20;56.70;;;;;;5047893;28;20029;-74
2022/06/12 07:37:25;;;;;;;12.00;3.80;;;23.30;56.40;;;;;;5046692;28;20037;-74
2022/06/12 07:39:50;;;;;;;11.77;3.47;;;23.50;56.20;;;;;;5042825;28;20026;-74
2022/06/12 07:42:16;;;;;;;12.93;3.60;;;23.60;56.00;;;;;;5045477;28;20028;-73
2022/06/12 07:44:42;;;;;;;12.10;3.38;;;23.70;55.70;;;;;;5048699;28;20340;-74
2022/06/12 07:47:08;;;;;;;8.30;3.33;;;23.70;55.60;;;;;;5047412;28;20105;-73
2022/06/12 07:49:34;;;;;;;11.32;3.08;;;23.60;55.50;;;;;;5036579;28;20053;-73
2022/06/12 07:52:03;;;;;;;14.02;3.75;;;23.60;55.60;;;;;;5045996;28;20108;-77
2022/06/12 07:54:30;;;;;;;12.23;2.80;;;23.60;55.20;;;;;;5034390;28;20374;-71
2022/06/12 07:56:56;;;;;;;11.80;3.47;;;23.70;55.10;;;;;;5033662;28;20029;-70
2022/06/12 07:59:23;;;;;;;11.00;2.85;;;23.80;54.80;;;;;;5034518;28;20416;-70
2022/06/12 08:01:50;;;;;;;11.88;3.65;;;24.00;54.60;;;;;;5034076;28;20034;-70
2022/06/12 08:04:16;;;;;;;7.45;2.88;;;24.10;54.20;;;;;;5035866;28;20041;-70
2022/06/12 08:06:42;;;;;;;13.38;3.40;;;24.20;53.80;;;;;;5016816;28;20025;-71
2022/06/12 08:09:10;;;;;;;9.70;3.15;;;24.40;53.60;;;;;;5035040;28;20110;-71
2022/06/12 08:11:36;;;;;;;11.27;2.90;;;24.40;53.30;;;;;;5030389;28;20052;-70
2022/06/12 08:14:02;;;;;;;9.57;2.67;;;24.20;53.50;;;;;;5030704;28;20369;-71
2022/06/12 08:16:28;;;;;;;10.23;3.17;;;24.20;53.80;;;;;;5034405;28;20036;-70
2022/06/12 08:18:54;;;;;;;9.70;2.38;;;24.20;53.50;;;;;;5034258;28;20037;-73
2022/06/12 08:21:20;;;;;;;10.52;3.30;;;24.30;53.40;;;;;;5035316;28;20025;-73
2022/06/12 08:23:53;;;;;;;10.50;3.08;;;24.30;53.20;;;;;;5037859;28;20033;-75
2022/06/12 08:26:24;;;;;;;12.45;3.20;;;24.30;53.00;;;;;;5041397;28;20040;-74
2022/06/12 08:28:52;;;;;;;10.02;2.58;;;24.20;52.90;;;;;;5041569;28;20354;-73
2022/06/12 08:31:25;;;;;;;7.90;2.38;;;24.20;52.90;;;;;;5043485;28;20093;-73
2022/06/12 08:33:55;;;;;;;12.35;2.95;;;24.30;52.60;;;;;;5026887;28;20033;-71
2022/06/12 08:36:21;;;;;;;10.15;3.00;;;24.30;52.60;;;;;;5038447;28;20048;-71
2022/06/12 08:38:48;;;;;;;9.18;2.78;;;24.30;52.60;;;;;;5033432;28;20128;-69
2022/06/12 08:41:22;;;;;;;11.43;3.17;;;24.40;52.70;;;;;;5033603;28;20023;-71
2022/06/12 08:44:12;;;;;;;10.60;2.67;;;24.50;52.50;;;;;;5033711;28;20029;-71
2022/06/12 08:46:54;;;;;;;7.88;2.30;;;24.70;52.30;;;;;;5035599;28;20045;-71
2022/06/12 08:49:41;;;;;;;9.05;2.38;;;25.00;51.70;;;;;;5035578;28;20061;-71
2022/06/12 08:52:45;;;;;;;9.98;2.38;;;25.20;51.00;;;;;;5034557;28;20029;-71
2022/06/12 08:55:18;;;;;;;8.38;2.40;;;25.20;50.60;;;;;;5027915;28;20066;-71
2022/06/12 08:58:06;;;;;;;11.07;2.78;;;25.10;50.50;;;;;;5045755;28;20398;-71
2022/06/12 09:00:35;;;;;;;11.70;3.13;;;25.10;50.50;;;;;;5039375;28;20037;-71
2022/06/12 09:03:05;;;;;;;10.18;2.15;;;25.20;50.40;;;;;;5035171;28;20033;-71
2022/06/12 09:05:52;;;;;;;9.70;2.22;;;25.20;50.30;;;;;;5035387;28;20426;-71
2022/06/12 09:08:28;;;;;;;7.50;2.10;;;25.20;50.20;;;;;;5033554;28;20425;-71
2022/06/12 09:11:22;;;;;;;10.50;2.72;;;25.30;50.40;;;;;;5035761;28;20063;-71
2022/06/12 09:13:56;;;;;;;9.93;2.50;;;25.40;50.30;;;;;;5030218;28;20048;-71
2022/06/12 09:16:36;;;;;;;6.90;2.05;;;25.70;49.80;;;;;;5047311;28;20040;-71
2022/06/12 09:19:20;;;;;;;9.07;2.40;;;25.90;49.50;;;;;;5042913;28;20476;-72
2022/06/12 09:21:58;;;;;;;7.80;2.22;;;25.90;49.10;;;;;;5042012;28;20078;-71
2022/06/12 09:24:38;;;;;;;7.85;2.22;;;26.10;48.70;;;;;;5032999;28;20030;-72
2022/06/12 09:27:21;;;;;;;6.70;2.20;;;26.30;48.20;;;;;;5039790;28;20116;-72
2022/06/12 09:29:57;;;;;;;8.15;2.33;;;26.30;47.60;;;;;;5037285;28;20052;-72
2022/06/12 09:32:49;;;;;;;7.95;2.60;;;26.30;47.50;;;;;;5040190;28;20109;-71
2022/06/12 09:35:30;;;;;;;8.98;2.50;;;26.30;47.40;;;;;;5040673;28;20086;-70
2022/06/12 09:38:21;;;;;;;4.95;1.90;;;26.30;47.50;;;;;;5044427;28;20059;-71
2022/06/12 09:41:09;;;;;;;5.63;1.73;;;26.30;46.80;;;;;;5039206;28;20033;-71
2022/06/12 09:43:37;;;;;;;6.90;1.95;;;26.40;46.20;;;;;;5045356;28;20026;-71
2022/06/12 09:46:11;;;;;;;5.90;2.30;;;26.50;45.70;;;;;;5046644;28;20056;-72
2022/06/12 09:49:05;;;;;;;7.85;2.20;;;26.40;45.70;;;;;;5048737;28;20378;-71
2022/06/12 09:51:51;;;;;;;7.65;2.35;;;26.50;46.00;;;;;;5038695;28;20031;-71
2022/06/12 09:54:42;;;;;;;7.95;2.28;;;26.50;45.50;;;;;;5036566;28;20033;-71
2022/06/12 09:57:22;;;;;;;6.45;2.00;;;26.40;45.00;;;;;;5036896;28;20025;-71
2022/06/12 10:00:16;;;;;;;8.18;2.35;;;26.40;44.80;;;;;;5034118;28;20092;-72
2022/06/12 10:02:55;;;;;;;7.82;2.22;;;26.30;45.40;;;;;;5051316;28;20025;-71
2022/06/12 10:05:41;;;;;;;10.05;2.22;;;26.40;44.80;;;;;;5038136;28;20362;-71
2022/06/12 10:08:15;;;;;;;9.05;2.20;;;26.40;44.70;;;;;;5041564;28;20409;-71
2022/06/12 10:10:56;;;;;;;6.47;1.88;;;26.30;45.20;;;;;;5044699;28;20043;-71
2022/06/12 10:13:41;;;;;;;8.15;2.00;;;26.60;45.20;;;;;;5042646;28;20091;-72
2022/06/12 10:16:15;;;;;;;9.15;2.47;;;26.90;45.30;;;;;;5057238;28;20028;-72
2022/06/12 10:18:52;;;;;;;6.22;1.85;;;27.10;45.00;;;;;;5041425;28;20029;-73
2022/06/12 10:21:22;;;;;;;7.68;2.30;;;27.30;44.70;;;;;;5039847;28;20041;-72
2022/06/12 10:23:49;;;;;;;7.93;2.30;;;27.40;44.80;;;;;;5040213;28;20387;-72
2022/06/12 10:26:19;;;;;;;10.73;2.97;;;27.40;45.40;;;;;;5028527;28;20082;-72
2022/06/12 10:28:46;;;;;;;8.20;2.30;;;27.20;44.70;;;;;;5051760;28;20047;-72
2022/06/12 10:31:11;;;;;;;6.40;2.03;;;27.10;44.80;;;;;;5055688;28;20053;-73
2022/06/12 10:33:43;;;;;;;7.15;2.08;;;27.10;44.90;;;;;;5049701;28;20059;-72
2022/06/12 10:36:23;;;;;;;6.63;2.17;;;27.20;45.00;;;;;;5056883;28;20025;-72
2022/06/12 10:38:49;;;;;;;8.55;2.35;;;27.20;44.70;;;;;;5037974;28;20026;-71
2022/06/12 10:41:25;;;;;;;8.63;2.42;;;27.20;44.80;;;;;;5055696;28;20032;-74
2022/06/12 10:43:53;;;;;;;5.28;1.92;;;27.10;44.70;;;;;;5047752;28;20029;-73
2022/06/12 10:46:24;;;;;;;8.68;2.20;;;27.10;44.60;;;;;;5036074;28;20017;-73
2022/06/12 10:49:17;;;;;;;7.25;2.13;;;26.90;44.80;;;;;;5033241;28;20424;-73
2022/06/12 10:51:43;;;;;;;7.03;2.10;;;26.60;45.10;;;;;;5040209;28;20048;-73
2022/06/12 10:54:15;;;;;;;7.18;1.95;;;26.30;45.40;;;;;;5034787;28;20438;-72
2022/06/12 10:56:46;;;;;;;9.07;2.47;;;26.00;46.00;;;;;;5048410;28;20029;-73
2022/06/12 10:59:38;;;;;;;7.05;2.25;;;25.80;46.30;;;;;;5045345;28;20029;-73
2022/06/12 11:02:31;;;;;;;7.00;2.42;;;25.90;46.30;;;;;;5035989;28;20033;-73
2022/06/12 11:05:24;;;;;;;8.77;2.47;;;25.90;46.20;;;;;;5034681;28;20026;-73
2022/06/12 11:08:13;;;;;;;6.95;2.38;;;25.70;46.40;;;;;;5035443;28;20021;-73
2022/06/12 11:10:53;;;;;;;10.52;2.97;;;25.30;46.70;;;;;;5028768;28;20048;-72
2022/06/12 11:13:26;;;;;;;6.70;2.25;;;25.00;47.40;;;;;;5034812;28;20124;-73
2022/06/12 11:16:00;;;;;;;8.18;2.45;;;24.70;48.00;;;;;;5039178;28;20345;-72
2022/06/12 11:18:32;;;;;;;7.05;2.30;;;24.50;48.40;;;;;;5028455;28;20032;-72
2022/06/12 11:21:05;;;;;;;10.27;2.75;;;24.40;48.70;;;;;;5047416;28;20102;-73
2022/06/12 11:23:55;;;;;;;8.63;2.60;;;24.50;49.00;;;;;;5040133;28;20038;-72
2022/06/12 11:26:33;;;;;;;7.53;2.53;;;24.60;48.90;;;;;;5037818;28;20033;-72
2022/06/12 11:29:17;;;;;;;8.93;2.33;;;24.60;49.10;;;;;;5038463;28;20033;-72
2022/06/12 11:32:13;;;;;;;7.68;2.30;;;24.40;48.50;;;;;;5038400;28;20025;-71
2022/06/12 11:34:51;;;;;;;8.85;2.38;;;24.20;48.60;;;;;;5040611;28;20037;-72
2022/06/12 11:37:22;;;;;;;7.55;2.22;;;24.00;48.90;;;;;;5025771;28;20134;-72
2022/06/12 11:40:34;;;;;;;9.07;2.53;;;23.90;49.40;;;;;;5034250;28;20033;-72
2022/06/12 11:43:06;;;;;;;9.23;2.42;;;23.90;49.70;;;;;;5029136;28;20025;-72
2022/06/12 11:45:53;;;;;;;11.48;2.40;;;23.80;49.80;;;;;;5036090;28;20154;-71
2022/06/12 11:48:50;;;;;;;7.97;2.50;;;23.70;49.80;;;;;;5035344;28;20033;-72
2022/06/12 11:51:40;;;;;;;7.93;2.22;;;23.90;49.50;;;;;;5036907;28;20115;-71
2022/06/12 11:54:28;;;;;;;6.50;2.13;;;24.10;49.00;;;;;;5034015;28;20489;-71
2022/06/12 11:57:10;;;;;;;6.82;2.22;;;24.30;48.60;;;;;;5038619;28;20447;-71
2022/06/12 11:59:53;;;;;;;6.38;2.05;;;24.50;48.10;;;;;;5038041;28;20327;-72
2022/06/12 12:02:52;;;;;;;6.88;1.95;;;24.60;47.80;;;;;;5033921;28;20017;-73
2022/06/12 12:05:20;;;;;;;5.47;1.85;;;24.70;47.50;;;;;;5034889;28;20067;-72
2022/06/12 12:07:52;;;;;;;5.95;1.85;;;24.80;47.50;;;;;;5036679;28;20025;-72
2022/06/12 12:10:42;;;;;;;9.50;2.50;;;24.80;47.50;;;;;;5034006;28;20076;-72
2022/06/12 12:13:14;;;;;;;4.60;1.53;;;24.80;47.20;;;;;;5034507;28;20115;-72
2022/06/12 12:15:53;;;;;;;9.90;2.45;;;24.90;47.10;;;;;;5016433;28;20083;-72
2022/06/12 12:18:39;;;;;;;5.03;1.77;;;25.10;46.90;;;;;;5030890;28;20029;-72
2022/06/12 12:21:13;;;;;;;7.32;2.00;;;25.20;46.40;;;;;;5038480;28;20124;-72
2022/06/12 12:23:45;;;;;;;5.65;2.38;;;25.30;46.10;;;;;;5034975;28;20020;-71
2022/06/12 12:26:38;;;;;;;7.15;1.83;;;25.30;45.50;;;;;;5035718;28;20032;-71
2022/06/12 12:29:12;;;;;;;8.52;2.40;;;25.30;45.10;;;;;;5029862;28;20040;-72
2022/06/12 12:31:39;;;;;;;5.60;1.48;;;25.20;45.30;;;;;;5034442;28;20108;-71
2022/06/12 12:34:08;;;;;;;7.03;2.00;;;25.20;45.30;;;;;;5040199;28;20037;-73
2022/06/12 12:42:32;;;;;;;6.68;1.90;;;25.10;45.40;;;;;;5036996;28;20029;-72
2022/06/12 12:45:23;;;;;;;6.20;2.08;;;25.20;45.50;;;;;;5040433;28;20523;-72
2022/06/12 12:48:03;;;;;;;5.28;1.98;;;25.20;45.10;;;;;;5039089;28;20045;-72
2022/06/12 12:50:48;;;;;;;6.65;1.85;;;25.20;44.80;;;;;;5036669;28;20096;-71
2022/06/12 12:53:23;;;;;;;6.03;2.00;;;25.10;43.90;;;;;;5038283;28;20022;-72
2022/06/12 12:56:12;;;;;;;4.88;1.67;;;24.90;44.00;;;;;;5034953;28;20039;-72
2022/06/12 12:58:54;;;;;;;5.63;1.63;;;24.90;44.30;;;;;;5035493;28;20035;-72
2022/06/12 13:01:24;;;;;;;6.03;1.63;;;24.90;44.50;;;;;;5035656;28;20462;-71
2022/06/12 13:03:55;;;;;;;6.43;1.75;;;24.90;44.20;;;;;;5034440;28;20029;-73
2022/06/12 13:06:54;;;;;;;5.80;1.70;;;24.90;43.90;;;;;;5036936;28;20025;-72
2022/06/12 13:09:48;;;;;;;4.80;1.85;;;24.90;43.40;;;;;;5043935;28;20033;-73
2022/06/12 13:12:38;;;;;;;4.90;1.45;;;24.90;43.50;;;;;;5034056;28;20241;-74
2022/06/12 13:15:37;;;;;;;5.82;1.50;;;24.70;43.00;;;;;;5038726;28;20060;-73
2022/06/12 13:18:39;;;;;;;6.93;2.20;;;24.60;42.60;;;;;;5047560;28;20029;-72
2022/06/12 13:21:11;;;;;;;8.35;2.15;;;24.50;42.40;;;;;;5032419;28;20037;-73
2022/06/12 13:23:59;;;;;;;6.22;1.52;;;24.50;42.70;;;;;;5034240;28;20033;-73
2022/06/12 13:26:28;;;;;;;2.45;1.10;;;24.50;41.70;;;;;;5026758;28;20120;-72
2022/06/12 13:29:05;;;;;;;4.82;1.50;;;24.40;41.40;;;;;;5047291;28;20362;-72
2022/06/12 13:31:34;;;;;;;4.10;1.38;;;24.50;41.10;;;;;;5047680;28;20036;-70
2022/06/12 13:34:03;;;;;;;5.40;1.67;;;24.40;41.50;;;;;;5051121;28;20342;-73
2022/06/12 13:36:40;;;;;;;2.67;0.98;;;24.50;41.40;;;;;;5053242;28;20064;-72
2022/06/12 13:39:29;;;;;;;3.58;1.05;;;24.50;41.20;;;;;;5038740;28;20037;-72